Time;durP1;ratioP1;P1;durP2;ratioP2;P2;SDS_P1;SDS_P2;PMS_P1;PMS_P2;Temp;Humidity;BMP_temperature;BMP_pressure;BME280_temperature;BME280_humidity;BME280_pressure;Samples;Min_cycle;Max_cycle;Signal;HPM_P1;HPM_P2
2022/12/24 00:02:50;;;;;;;;;;;;;;;17.15;39.56;95054.88;10401796;28;2063;-45
2022/12/24 00:08:00;;;;;;;;;;;;;;;17.17;39.48;95071.91;10393371;28;1960;-45
2022/12/24 00:13:00;;;;;;;;;;;;;;;17.17;39.58;95086.81;10401522;28;1906;-46
2022/12/24 00:18:01;;;;;;;;;;;;;;;17.17;39.31;95092.84;10399786;28;2056;-46
2022/12/24 00:23:01;;;;;;;;;;;;;;;17.16;39.49;95101.78;10390273;28;1913;-45
2022/12/24 00:28:02;;;;;;;;;;;;;;;17.14;39.54;95092.63;10398113;28;5045;-46
2022/12/24 00:33:08;;;;;;;;;;;;;;;17.12;39.67;95099.94;10400442;28;1986;-45
2022/12/24 00:38:08;;;;;;;;;;;;;;;17.09;39.60;95096.81;10391459;28;1934;-46
2022/12/24 00:43:08;;;;;;;;;;;;;;;17.14;39.60;95118.81;10397663;28;1979;-45
2022/12/24 00:48:09;;;;;;;;;;;;;;;17.13;39.66;95125.06;10399852;28;2012;-46
2022/12/24 00:53:09;;;;;;;;;;;;;;;17.13;39.54;95148.66;10405183;28;2070;-46
2022/12/24 00:58:09;;;;;;;;;;;;;;;17.14;39.57;95145.00;10394137;28;2003;-45
2022/12/24 01:03:11;;;;;;;;;;;;;;;17.13;39.63;95146.03;10393770;28;1989;-46
2022/12/24 01:08:11;;;;;;;;;;;;;;;17.06;39.72;95138.47;10396153;28;2058;-45
2022/12/24 01:13:11;;;;;;;;;;;;;;;17.12;39.68;95149.72;10394085;28;1954;-45
2022/12/24 01:18:12;;;;;;;;;;;;;;;17.17;39.55;95149.69;10397188;28;2006;-45
2022/12/24 01:23:12;;;;;;;;;;;;;;;17.14;39.54;95161.50;10388376;28;1934;-46
2022/12/24 01:28:12;;;;;;;;;;;;;;;17.12;39.59;95163.59;10396249;28;5001;-45
2022/12/24 01:33:13;;;;;;;;;;;;;;;17.18;39.55;95169.59;10395080;28;1993;-45
2022/12/24 01:38:13;;;;;;;;;;;;;;;17.14;39.54;95184.28;10393609;28;1973;-45
2022/12/24 01:43:23;;;;;;;;;;;;;;;17.18;39.47;95188.72;10420643;28;1957;-46
2022/12/24 01:48:23;;;;;;;;;;;;;;;17.16;39.49;95195.28;10410206;28;1981;-49
2022/12/24 01:53:24;;;;;;;;;;;;;;;17.09;39.56;95203.38;10406934;28;2106;-47
2022/12/24 01:58:24;;;;;;;;;;;;;;;17.16;39.63;95208.38;10408251;28;2061;-45
2022/12/24 02:03:27;;;;;;;;;;;;;;;17.12;39.41;95205.50;10399144;28;1925;-46
2022/12/24 02:08:38;;;;;;;;;;;;;;;17.16;39.43;95201.28;10390812;28;1981;-48
2022/12/24 02:13:43;;;;;;;;;;;;;;;17.14;39.47;95216.50;10389954;28;2133;-45
2022/12/24 02:18:51;;;;;;;;;;;;;;;17.14;39.54;95223.56;10405520;28;1914;-45
2022/12/24 02:23:55;;;;;;;;;;;;;;;17.08;39.64;95220.16;10413935;28;1949;-49
2022/12/24 02:28:55;;;;;;;;;;;;;;;17.09;39.60;95216.47;10394571;28;4970;-47
2022/12/24 02:34:22;;;;;;;;;;;;;;;17.11;39.69;95217.00;10401711;28;2015;-48
2022/12/24 02:39:42;;;;;;;;;;;;;;;17.10;39.65;95239.78;10401666;28;2114;-47
2022/12/24 02:44:54;;;;;;;;;;;;;;;17.14;39.51;95254.97;10389142;28;2137;-45
2022/12/24 02:49:54;;;;;;;;;;;;;;;17.13;39.46;95261.25;10400345;28;2318;-48
2022/12/24 02:54:54;;;;;;;;;;;;;;;17.14;39.51;95262.84;10402368;28;1985;-45
2022/12/24 02:59:55;;;;;;;;;;;;;;;17.14;39.49;95266.25;10394857;28;2029;-45
2022/12/24 03:04:56;;;;;;;;;;;;;;;17.13;39.50;95263.88;10393425;28;2022;-46
2022/12/24 03:10:15;;;;;;;;;;;;;;;17.11;39.61;95261.53;10397325;28;2025;-47
2022/12/24 03:15:16;;;;;;;;;;;;;;;17.15;39.46;95262.56;10419153;28;1945;-45
2022/12/24 03:20:18;;;;;;;;;;;;;;;17.10;39.62;95276.44;10413370;28;1960;-45
2022/12/24 03:25:18;;;;;;;;;;;;;;;17.14;39.55;95275.94;10412612;28;2104;-46
2022/12/24 03:30:22;;;;;;;;;;;;;;;17.08;39.61;95262.06;10389769;28;5089;-47
2022/12/24 03:35:22;;;;;;;;;;;;;;;17.10;39.59;95273.06;10395067;28;1922;-48
2022/12/24 03:40:23;;;;;;;;;;;;;;;17.09;39.58;95284.56;10403053;28;1922;-47
2022/12/24 03:45:27;;;;;;;;;;;;;;;17.08;39.58;95298.72;10398289;28;2166;-49
2022/12/24 03:50:28;;;;;;;;;;;;;;;17.08;39.58;95304.72;10390500;28;2022;-45
2022/12/24 03:55:28;;;;;;;;;;;;;;;17.01;39.70;95279.84;10399229;28;2061;-45
2022/12/24 04:00:28;;;;;;;;;;;;;;;17.02;39.70;95289.31;10388259;28;2093;-45
2022/12/24 04:05:32;;;;;;;;;;;;;;;17.03;39.65;95307.34;10391854;28;2056;-47
2022/12/24 04:10:32;;;;;;;;;;;;;;;17.01;39.72;95309.44;10397339;28;2076;-46
2022/12/24 04:15:32;;;;;;;;;;;;;;;17.06;39.55;95324.38;10400050;28;2042;-46
2022/12/24 04:20:35;;;;;;;;;;;;;;;17.06;39.67;95340.09;10397854;28;2101;-45
2022/12/24 04:25:35;;;;;;;;;;;;;;;17.04;39.59;95339.56;10398832;28;2061;-47
2022/12/24 04:30:39;;;;;;;;;;;;;;;17.05;39.65;95335.91;10398936;28;4983;-46
2022/12/24 04:35:40;;;;;;;;;;;;;;;17.07;39.64;95357.38;10409468;28;1972;-45
2022/12/24 04:40:46;;;;;;;;;;;;;;;17.06;39.63;95353.19;10398542;28;2144;-46
2022/12/24 04:45:46;;;;;;;;;;;;;;;17.03;39.67;95354.50;10396766;28;2046;-45
2022/12/24 04:50:47;;;;;;;;;;;;;;;17.03;39.67;95359.72;10392158;28;2042;-45
2022/12/24 04:55:47;;;;;;;;;;;;;;;17.06;39.64;95371.53;10394068;28;2054;-47
2022/12/24 05:00:47;;;;;;;;;;;;;;;17.01;39.70;95377.53;10400201;28;1902;-45
2022/12/24 05:05:48;;;;;;;;;;;;;;;16.98;39.73;95377.28;10399493;28;1911;-45
2022/12/24 05:10:54;;;;;;;;;;;;;;;17.04;39.57;95381.47;10396087;28;1961;-46
2022/12/24 05:15:54;;;;;;;;;;;;;;;17.01;39.72;95377.53;10394568;28;1863;-47
2022/12/24 05:20:54;;;;;;;;;;;;;;;17.04;39.63;95376.22;10408106;28;1942;-45
2022/12/24 05:31:13;;;;;;;;;;;;;;;17.01;39.65;95382.75;10404211;28;5228;-48
2022/12/24 05:36:13;;;;;;;;;;;;;;;17.07;39.48;95384.34;10403061;28;2066;-45
2022/12/24 05:41:14;;;;;;;;;;;;;;;17.01;39.64;95381.97;10401807;28;2049;-51
2022/12/24 05:46:14;;;;;;;;;;;;;;;17.04;39.57;95402.41;10401510;28;1969;-46
2022/12/24 05:51:18;;;;;;;;;;;;;;;17.08;39.62;95395.63;10402258;28;1902;-45
2022/12/24 05:56:19;;;;;;;;;;;;;;;16.99;39.64;95411.03;10409362;28;2044;-45
2022/12/24 06:01:20;;;;;;;;;;;;;;;17.01;39.60;95413.41;10405734;28;2006;-45
2022/12/24 06:06:21;;;;;;;;;;;;;;;17.01;39.56;95416.81;10395676;28;2391;-45
2022/12/24 06:11:23;;;;;;;;;;;;;;;17.02;39.60;95435.94;10398429;28;2050;-45
2022/12/24 06:16:23;;;;;;;;;;;;;;;16.99;39.61;95444.28;10399069;28;1979;-44
2022/12/24 06:21:23;;;;;;;;;;;;;;;17.00;39.57;95446.63;10397574;28;2157;-45
2022/12/24 06:26:24;;;;;;;;;;;;;;;16.94;39.68;95424.09;10408322;28;5014;-45
2022/12/24 06:31:24;;;;;;;;;;;;;;;16.96;39.63;95442.19;10401162;28;2225;-47
2022/12/24 06:36:24;;;;;;;;;;;;;;;16.99;39.64;95433.81;10400243;28;1946;-47
2022/12/24 06:41:25;;;;;;;;;;;;;;;16.96;39.61;95450.06;10399231;28;1976;-45
2022/12/24 06:46:25;;;;;;;;;;;;;;;16.91;39.83;95450.03;10409532;28;1946;-47
2022/12/24 06:51:25;;;;;;;;;;;;;;;16.95;39.71;95462.34;10401884;28;1962;-47
2022/12/24 06:56:26;;;;;;;;;;;;;;;16.92;39.73;95465.47;10412194;28;1887;-46
2022/12/24 07:01:26;;;;;;;;;;;;;;;16.96;39.76;95478.84;10396889;28;1937;-48
2022/12/24 07:06:27;;;;;;;;;;;;;;;16.96;39.61;95469.16;10407917;28;1911;-46
2022/12/24 07:11:27;;;;;;;;;;;;;;;16.89;39.79;95466.00;10400680;28;1961;-45
2022/12/24 07:16:28;;;;;;;;;;;;;;;16.91;39.73;95473.59;10418099;28;1906;-45
2022/12/24 07:21:35;;;;;;;;;;;;;;;16.92;39.73;95481.19;10399899;28;1973;-45
2022/12/24 07:26:35;;;;;;;;;;;;;;;16.91;39.87;95491.91;10403168;28;5040;-45
2022/12/24 07:31:35;;;;;;;;;;;;;;;16.88;39.79;95497.66;10391825;28;2037;-45
2022/12/24 07:36:35;;;;;;;;;;;;;;;16.89;39.85;95507.09;10401890;28;1957;-45
2022/12/24 07:41:36;;;;;;;;;;;;;;;16.88;39.83;95513.34;10395211;28;1915;-45
2022/12/24 07:46:36;;;;;;;;;;;;;;;16.94;39.64;95526.22;10400346;28;1977;-46
2022/12/24 07:51:36;;;;;;;;;;;;;;;16.92;39.67;95546.63;10395162;28;1906;-46
2022/12/24 07:56:36;;;;;;;;;;;;;;;16.89;39.74;95541.91;10395614;28;2037;-45
2022/12/24 08:01:37;;;;;;;;;;;;;;;16.88;39.87;95550.00;10389806;28;1906;-46
2022/12/24 08:06:38;;;;;;;;;;;;;;;16.93;39.65;95557.91;10398931;28;1921;-48
2022/12/24 08:11:38;;;;;;;;;;;;;;;16.89;39.82;95556.84;10403501;28;1958;-45
2022/12/24 08:16:38;;;;;;;;;;;;;;;16.87;39.70;95564.16;10393751;28;1900;-46
2022/12/24 08:21:38;;;;;;;;;;;;;;;16.90;39.67;95580.13;10395919;28;2038;-45
2022/12/24 08:26:39;;;;;;;;;;;;;;;16.89;39.79;95577.78;10409995;28;5006;-45
2022/12/24 08:31:40;;;;;;;;;;;;;;;16.84;39.76;95583.75;10402571;28;1981;-47
2022/12/24 08:36:50;;;;;;;;;;;;;;;16.86;39.79;95593.97;10395841;28;2082;-45
2022/12/24 08:41:51;;;;;;;;;;;;;;;16.90;39.66;95595.03;10391083;28;1961;-47
2022/12/24 08:46:52;;;;;;;;;;;;;;;16.87;39.72;95595.56;10393202;28;1973;-45
2022/12/24 08:51:57;;;;;;;;;;;;;;;16.85;39.81;95600.28;10397599;28;1898;-45
2022/12/24 08:56:57;;;;;;;;;;;;;;;16.88;39.75;95604.97;10394533;28;2082;-45
2022/12/24 09:01:57;;;;;;;;;;;;;;;16.92;39.51;95629.63;10400709;28;1887;-46
2022/12/24 09:06:58;;;;;;;;;;;;;;;16.86;39.76;95646.34;10401410;28;2095;-45
2022/12/24 09:11:58;;;;;;;;;;;;;;;16.84;39.77;95648.41;10398532;28;1950;-46
2022/12/24 09:16:58;;;;;;;;;;;;;;;16.86;39.69;95659.44;10415396;28;1832;-49
2022/12/24 09:21:59;;;;;;;;;;;;;;;16.92;39.65;95666.28;10391452;28;2060;-44
2022/12/24 09:27:00;;;;;;;;;;;;;;;16.90;39.76;95674.38;10402603;28;5025;-45
2022/12/24 09:32:01;;;;;;;;;;;;;;;16.86;39.77;95669.91;10402623;28;1894;-45
2022/12/24 09:37:02;;;;;;;;;;;;;;;16.90;39.77;95663.13;10405055;28;1918;-48
2022/12/24 09:42:11;;;;;;;;;;;;;;;16.86;39.79;95669.91;10399786;28;2053;-45
2022/12/24 09:47:20;;;;;;;;;;;;;;;16.86;39.73;95657.59;10404156;28;1973;-45
2022/12/24 09:52:40;;;;;;;;;;;;;;;16.89;39.79;95648.47;10395685;28;1878;-45
2022/12/24 09:57:41;;;;;;;;;;;;;;;16.91;39.70;95662.88;10395501;28;1994;-46
2022/12/24 10:02:41;;;;;;;;;;;;;;;16.86;39.76;95655.00;10394743;28;1977;-45
2022/12/24 10:07:55;;;;;;;;;;;;;;;16.82;39.99;95648.69;10404854;28;1906;-46
2022/12/24 10:13:02;;;;;;;;;;;;;;;16.85;40.04;95652.63;10403039;28;1941;-45
2022/12/24 10:18:22;;;;;;;;;;;;;;;16.87;39.90;95653.16;10405337;28;2064;-45
2022/12/24 10:23:34;;;;;;;;;;;;;;;16.87;39.89;95663.63;10404352;28;2139;-45
2022/12/24 10:28:43;;;;;;;;;;;;;;;16.85;40.02;95676.19;10408123;28;4998;-46
2022/12/24 10:33:44;;;;;;;;;;;;;;;16.85;39.99;95682.22;10397055;28;1981;-46
2022/12/24 10:38:50;;;;;;;;;;;;;;;16.86;40.10;95681.16;10406883;28;1903;-45
2022/12/24 10:43:50;;;;;;;;;;;;;;;16.91;39.88;95681.22;10400128;28;1962;-46
2022/12/24 10:48:52;;;;;;;;;;;;;;;16.89;39.86;95664.97;10402027;28;1973;-45
2022/12/24 10:53:56;;;;;;;;;;;;;;;16.85;40.08;95673.56;10407134;28;2001;-47
2022/12/24 10:58:56;;;;;;;;;;;;;;;16.91;39.84;95681.22;10421675;28;1955;-45
2022/12/24 11:04:00;;;;;;;;;;;;;;;16.88;40.02;95678.28;10420685;28;2115;-45
2022/12/24 11:09:11;;;;;;;;;;;;;;;16.91;39.93;95675.97;10418208;28;1920;-45
2022/12/24 11:14:13;;;;;;;;;;;;;;;16.91;40.01;95675.19;10406172;28;2145;-45
2022/12/24 11:19:17;;;;;;;;;;;;;;;16.89;40.04;95669.41;10418450;28;1984;-45
2022/12/24 11:24:28;;;;;;;;;;;;;;;16.88;40.28;95673.06;10405992;28;1904;-45
2022/12/24 11:29:28;;;;;;;;;;;;;;;16.85;40.33;95666.50;10413744;28;5005;-47
2022/12/24 11:34:29;;;;;;;;;;;;;;;16.89;40.31;95659.72;10397012;28;1949;-45
2022/12/24 11:39:30;;;;;;;;;;;;;;;16.87;40.49;95661.03;10408331;28;1832;-48
2022/12/24 11:44:30;;;;;;;;;;;;;;;16.94;40.33;95651.09;10397193;28;2047;-46
2022/12/24 11:49:31;;;;;;;;;;;;;;;16.96;40.17;95643.81;10399368;28;2034;-45
2022/12/24 11:54:33;;;;;;;;;;;;;;;16.90;40.46;95650.03;10403699;28;1729;-46
2022/12/24 11:59:35;;;;;;;;;;;;;;;16.87;40.55;95653.16;10391975;28;1919;-45
2022/12/24 12:04:36;;;;;;;;;;;;;;;16.93;40.33;95660.00;10411795;28;1896;-45
2022/12/24 12:09:37;;;;;;;;;;;;;;;16.95;40.40;95666.56;10403885;28;2244;-45
2022/12/24 12:14:40;;;;;;;;;;;;;;;16.95;40.36;95660.53;10405781;28;1907;-49
2022/12/24 12:19:48;;;;;;;;;;;;;;;16.93;40.46;95665.25;10400924;28;2175;-45
2022/12/24 12:24:50;;;;;;;;;;;;;;;16.96;40.34;95667.38;10418855;28;1878;-47
2022/12/24 12:29:56;;;;;;;;;;;;;;;16.93;40.30;95667.88;10413298;28;4907;-47
2022/12/24 12:35:08;;;;;;;;;;;;;;;16.91;40.48;95668.13;10396725;28;2005;-45
2022/12/24 12:40:12;;;;;;;;;;;;;;;16.94;40.30;95679.91;10414615;28;1849;-46
2022/12/24 12:45:17;;;;;;;;;;;;;;;16.92;40.40;95684.59;10393086;28;1977;-44
2022/12/24 12:50:21;;;;;;;;;;;;;;;16.94;40.26;95679.91;10404623;28;1848;-45
2022/12/24 12:55:21;;;;;;;;;;;;;;;16.92;40.29;95690.63;10401004;28;2057;-47
2022/12/24 13:00:22;;;;;;;;;;;;;;;16.90;40.34;95695.34;10401509;28;1950;-46
2022/12/24 13:05:41;;;;;;;;;;;;;;;16.92;40.40;95684.59;10385309;28;2270;-46
2022/12/24 13:10:48;;;;;;;;;;;;;;;16.95;40.29;95678.88;10401673;28;1918;-45
2022/12/24 13:16:00;;;;;;;;;;;;;;;16.99;40.14;95698.28;10413929;28;1909;-46
2022/12/24 13:21:12;;;;;;;;;;;;;;;16.93;40.52;95694.84;10398862;28;1952;-45
2022/12/24 13:26:13;;;;;;;;;;;;;;;16.93;40.24;95696.66;10412610;28;1954;-45
2022/12/24 13:31:18;;;;;;;;;;;;;;;16.86;40.68;95709.97;10402804;28;5189;-45
2022/12/24 13:36:21;;;;;;;;;;;;;;;16.88;40.77;95714.94;10404967;28;1914;-45
2022/12/24 13:41:30;;;;;;;;;;;;;;;16.87;40.90;95721.22;10407854;28;1906;-46
2022/12/24 13:46:50;;;;;;;;;;;;;;;16.87;40.67;95714.19;10408109;28;2089;-45
2022/12/24 13:51:50;;;;;;;;;;;;;;;16.98;40.13;95722.91;10403891;28;1851;-46
2022/12/24 13:56:50;;;;;;;;;;;;;;;16.92;40.44;95718.63;10408307;28;2058;-46
2022/12/24 14:01:51;;;;;;;;;;;;;;;16.88;40.81;95728.03;10411902;28;2044;-47
2022/12/24 14:06:51;;;;;;;;;;;;;;;16.92;40.62;95724.66;10422765;28;1967;-48
2022/12/24 14:11:57;;;;;;;;;;;;;;;16.90;40.57;95721.50;10401729;28;1960;-46
2022/12/24 14:17:00;;;;;;;;;;;;;;;16.91;40.61;95732.78;10406672;28;1941;-45
2022/12/24 14:22:10;;;;;;;;;;;;;;;16.96;40.59;95730.22;10417389;28;1942;-46
2022/12/24 14:27:29;;;;;;;;;;;;;;;16.89;40.57;95735.66;10410252;28;4975;-45
2022/12/24 14:32:34;;;;;;;;;;;;;;;16.96;40.23;95735.44;10401446;28;1831;-46
2022/12/24 14:37:35;;;;;;;;;;;;;;;16.94;40.25;95742.75;10393001;28;1973;-45
2022/12/24 14:42:41;;;;;;;;;;;;;;;16.91;40.44;95751.91;10397204;28;1946;-46
2022/12/24 14:47:41;;;;;;;;;;;;;;;16.95;40.34;95758.22;10409515;28;2203;-45
2022/12/24 14:52:46;;;;;;;;;;;;;;;16.93;40.29;95760.28;10402353;28;2029;-46
2022/12/24 14:57:46;;;;;;;;;;;;;;;16.93;40.29;95772.59;10406431;28;2229;-45
2022/12/24 15:02:56;;;;;;;;;;;;;;;16.90;40.27;95780.94;10408135;28;1911;-46
2022/12/24 15:07:57;;;;;;;;;;;;;;;16.94;40.25;95784.63;10397424;28;2005;-49
2022/12/24 15:13:00;;;;;;;;;;;;;;;16.89;40.32;95769.69;10420509;28;2006;-45
2022/12/24 15:18:01;;;;;;;;;;;;;;;16.92;40.16;95773.63;10401936;28;1918;-46
2022/12/24 15:23:01;;;;;;;;;;;;;;;16.84;40.36;95768.84;10415836;28;1954;-47
2022/12/24 15:28:01;;;;;;;;;;;;;;;16.89;40.16;95761.03;10409553;28;5014;-45
2022/12/24 15:33:02;;;;;;;;;;;;;;;16.91;40.12;95766.81;10396027;28;2018;-45
2022/12/24 15:38:04;;;;;;;;;;;;;;;16.86;40.21;95751.06;10408152;28;1812;-46
2022/12/24 15:43:05;;;;;;;;;;;;;;;16.83;40.17;95754.19;10403565;28;1966;-46
2022/12/24 15:48:08;;;;;;;;;;;;;;;16.83;40.22;95762.03;10398229;28;1973;-47
2022/12/24 15:53:16;;;;;;;;;;;;;;;16.85;40.12;95770.44;10400308;28;2180;-45
2022/12/24 15:58:17;;;;;;;;;;;;;;;16.85;40.10;95778.28;10401318;28;1929;-46
2022/12/24 16:03:19;;;;;;;;;;;;;;;16.82;40.10;95770.91;10401790;28;1879;-46
2022/12/24 16:08:23;;;;;;;;;;;;;;;16.86;40.26;95778.03;10399290;28;1963;-45
2022/12/24 16:13:24;;;;;;;;;;;;;;;16.85;39.99;95778.28;10403733;28;1976;-47
2022/12/24 16:18:33;;;;;;;;;;;;;;;16.83;40.00;95773.31;10395647;28;1945;-46
2022/12/24 16:23:38;;;;;;;;;;;;;;;16.82;40.13;95776.16;10398080;28;1945;-46
2022/12/24 16:28:38;;;;;;;;;;;;;;;16.84;39.97;95785.34;10402907;28;5175;-47
2022/12/24 16:33:38;;;;;;;;;;;;;;;16.87;40.01;95789.31;10397885;28;1941;-45
2022/12/24 16:43:57;;;;;;;;;;;;;;;16.80;40.02;95778.22;10400243;28;2149;-46
2022/12/24 16:48:58;;;;;;;;;;;;;;;16.77;40.08;95789.22;10403779;28;2036;-47
2022/12/24 16:53:59;;;;;;;;;;;;;;;16.79;40.03;95802.84;10398766;28;1894;-48
2022/12/24 16:58:59;;;;;;;;;;;;;;;16.77;40.20;95797.88;10399552;28;1965;-45
2022/12/24 17:04:01;;;;;;;;;;;;;;;16.74;40.14;95806.19;10397822;28;1840;-48
2022/12/24 17:09:01;;;;;;;;;;;;;;;16.81;39.91;95808.63;10395862;28;1930;-46
2022/12/24 17:14:01;;;;;;;;;;;;;;;16.75;40.04;95805.19;10415238;28;1970;-47
2022/12/24 17:19:02;;;;;;;;;;;;;;;16.73;40.13;95794.13;10416085;28;1875;-47
2022/12/24 17:24:02;;;;;;;;;;;;;;;16.79;39.93;95802.84;10397751;28;1934;-47
2022/12/24 17:29:04;;;;;;;;;;;;;;;16.81;39.86;95801.56;10406430;28;5017;-45
2022/12/24 17:34:04;;;;;;;;;;;;;;;16.73;40.02;95804.59;10413769;28;1962;-45
2022/12/24 17:39:04;;;;;;;;;;;;;;;16.77;39.89;95797.88;10408960;28;1989;-45
2022/12/24 17:44:07;;;;;;;;;;;;;;;16.78;40.00;95816.97;10416721;28;1937;-47
2022/12/24 17:49:08;;;;;;;;;;;;;;;16.83;39.85;95815.19;10421548;28;2288;-47
2022/12/24 17:54:08;;;;;;;;;;;;;;;16.72;40.04;95802.25;10412108;28;1954;-44
2022/12/24 17:59:08;;;;;;;;;;;;;;;16.76;39.98;95803.31;10409674;28;1960;-46
2022/12/24 18:04:09;;;;;;;;;;;;;;;16.77;39.88;95807.53;10407793;28;1902;-45
2022/12/24 18:09:09;;;;;;;;;;;;;;;16.75;39.97;95809.63;10423358;28;2080;-45
2022/12/24 18:14:10;;;;;;;;;;;;;;;16.78;40.01;95814.34;10408618;28;2034;-45
2022/12/24 18:19:11;;;;;;;;;;;;;;;16.74;39.89;95819.28;10404915;28;1961;-46
2022/12/24 18:24:11;;;;;;;;;;;;;;;16.72;40.05;95823.97;10399913;28;2081;-45
2022/12/24 18:29:12;;;;;;;;;;;;;;;16.69;40.07;95821.84;10420256;28;5010;-46
2022/12/24 18:34:12;;;;;;;;;;;;;;;16.71;40.05;95830.25;10403240;28;2039;-46
2022/12/24 18:39:12;;;;;;;;;;;;;;;16.74;39.91;95834.19;10403105;28;1897;-46
2022/12/24 18:44:15;;;;;;;;;;;;;;;16.73;39.91;95824.78;10407468;28;2097;-45
2022/12/24 18:49:15;;;;;;;;;;;;;;;16.74;39.97;95824.53;10402066;28;2034;-46
2022/12/24 18:54:16;;;;;;;;;;;;;;;16.72;39.82;95825.78;10408248;28;1886;-48
2022/12/24 18:59:16;;;;;;;;;;;;;;;16.72;39.92;95825.78;10407374;28;1942;-47
2022/12/24 19:04:16;;;;;;;;;;;;;;;16.71;39.90;95829.47;10407649;28;1961;-45
2022/12/24 19:09:17;;;;;;;;;;;;;;;16.69;39.94;95839.41;10406144;28;1902;-45
2022/12/24 19:14:19;;;;;;;;;;;;;;;16.70;39.93;95847.00;10404012;28;1985;-45
2022/12/24 19:19:22;;;;;;;;;;;;;;;16.66;39.94;95851.13;10395905;28;2181;-47
2022/12/24 19:24:22;;;;;;;;;;;;;;;16.65;40.05;95864.47;10392003;28;1902;-45
2022/12/24 19:29:23;;;;;;;;;;;;;;;16.67;39.87;95857.16;10408240;28;5007;-46
2022/12/24 19:34:27;;;;;;;;;;;;;;;16.68;39.85;95853.50;10397449;28;1828;-46
2022/12/24 19:39:28;;;;;;;;;;;;;;;16.68;39.91;95853.50;10402217;28;2185;-45
2022/12/24 19:44:28;;;;;;;;;;;;;;;16.62;40.02;95850.06;10398845;28;1898;-46
2022/12/24 19:49:28;;;;;;;;;;;;;;;16.66;40.01;95871.28;10395699;28;1973;-48
2022/12/24 19:54:28;;;;;;;;;;;;;;;16.67;39.93;95863.19;10402137;28;2100;-46
2022/12/24 19:59:29;;;;;;;;;;;;;;;16.67;39.94;95860.56;10395706;28;2100;-45
2022/12/24 20:04:29;;;;;;;;;;;;;;;16.63;40.00;95848.22;10403084;28;1896;-45
2022/12/24 20:09:33;;;;;;;;;;;;;;;16.66;39.93;95842.50;10404673;28;1965;-45
2022/12/24 20:14:34;;;;;;;;;;;;;;;16.66;39.88;95839.88;10399824;28;1922;-47
2022/12/24 20:19:34;;;;;;;;;;;;;;;16.67;39.82;95847.47;10395338;28;2060;-49
2022/12/24 20:24:34;;;;;;;;;;;;;;;16.61;39.96;95842.44;10401650;28;2054;-47
2022/12/24 20:29:35;;;;;;;;;;;;;;;16.61;39.97;95858.94;10399129;28;4997;-45
2022/12/24 20:34:35;;;;;;;;;;;;;;;16.68;39.82;95863.97;10398406;28;2394;-45
2022/12/24 20:39:35;;;;;;;;;;;;;;;16.59;39.97;95874.09;10403860;28;2058;-45
2022/12/24 20:44:36;;;;;;;;;;;;;;;16.64;39.90;95873.34;10395345;28;2015;-45
2022/12/24 20:49:36;;;;;;;;;;;;;;;16.62;39.89;95878.84;10403010;28;2034;-48
2022/12/24 20:54:37;;;;;;;;;;;;;;;16.62;39.88;95862.34;10401580;28;1940;-46
2022/12/24 20:59:37;;;;;;;;;;;;;;;16.63;39.92;95869.94;10403993;28;1957;-46
2022/12/24 21:04:37;;;;;;;;;;;;;;;16.63;39.98;95869.16;10397260;28;2019;-45
2022/12/24 21:09:37;;;;;;;;;;;;;;;16.61;39.96;95874.63;10420955;28;1993;-45
2022/12/24 21:14:38;;;;;;;;;;;;;;;16.63;39.83;95877.03;10389479;28;1950;-45
2022/12/24 21:19:38;;;;;;;;;;;;;;;16.64;39.86;95881.19;10399752;28;1945;-45
2022/12/24 21:24:38;;;;;;;;;;;;;;;16.61;39.75;95879.09;10398687;28;1957;-45
2022/12/24 21:29:38;;;;;;;;;;;;;;;16.57;39.91;95867.53;10393265;28;5097;-46
2022/12/24 21:34:39;;;;;;;;;;;;;;;16.54;40.02;95866.19;10398099;28;2085;-45
2022/12/24 21:39:39;;;;;;;;;;;;;;;16.59;39.96;95878.53;10400091;28;2428;-45
2022/12/24 21:44:39;;;;;;;;;;;;;;;16.59;39.93;95889.00;10393471;28;2049;-46
2022/12/24 21:54:59;;;;;;;;;;;;;;;16.60;39.79;95883.53;10400225;28;2065;-46
2022/12/24 22:00:20;;;;;;;;;;;;;;;16.58;39.94;95895.28;10399890;28;2057;-47
2022/12/24 22:05:20;;;;;;;;;;;;;;;16.60;39.79;95894.00;10397937;28;2022;-46
2022/12/24 22:15:49;;;;;;;;;;;;;;;16.56;39.94;95885.06;10403526;28;2035;-45
2022/12/24 22:20:49;;;;;;;;;;;;;;;16.53;40.01;95885.53;10393264;28;1944;-45
2022/12/24 22:25:50;;;;;;;;;;;;;;;16.52;39.99;95891.81;10407471;28;2070;-46
2022/12/24 22:30:50;;;;;;;;;;;;;;;16.51;40.04;95890.22;10396887;28;5013;-45
2022/12/24 22:35:50;;;;;;;;;;;;;;;16.56;39.89;95887.66;10404827;28;2102;-45
2022/12/24 22:40:50;;;;;;;;;;;;;;;16.55;39.82;95901.00;10402459;28;1989;-47
2022/12/24 22:45:52;;;;;;;;;;;;;;;16.57;39.92;95904.16;10406824;28;1968;-50
2022/12/24 22:50:52;;;;;;;;;;;;;;;16.53;40.03;95905.66;10397732;28;1981;-46
2022/12/24 22:55:55;;;;;;;;;;;;;;;16.55;39.92;95914.84;10403346;28;2015;-45
2022/12/24 23:00:56;;;;;;;;;;;;;;;16.57;39.84;95914.63;10404476;28;1911;-45
2022/12/24 23:06:03;;;;;;;;;;;;;;;16.52;39.97;95917.19;10396196;28;2034;-48
2022/12/24 23:11:07;;;;;;;;;;;;;;;16.52;40.00;95904.91;10400173;28;1973;-47
2022/12/24 23:16:07;;;;;;;;;;;;;;;16.50;39.98;95908.78;10389211;28;2015;-46
2022/12/24 23:21:18;;;;;;;;;;;;;;;16.51;39.98;95912.97;10395664;28;2033;-46
2022/12/24 23:26:18;;;;;;;;;;;;;;;16.49;39.96;95917.63;10405488;28;5053;-45
2022/12/24 23:31:19;;;;;;;;;;;;;;;16.55;39.80;95927.19;10388960;28;1988;-45
2022/12/24 23:36:20;;;;;;;;;;;;;;;16.55;39.88;95922.72;10396844;28;2081;-47
2022/12/24 23:41:20;;;;;;;;;;;;;;;16.54;39.85;95925.56;10400728;28;2077;-45
2022/12/24 23:46:20;;;;;;;;;;;;;;;16.52;39.97;95917.97;10392419;28;2053;-47
2022/12/24 23:51:22;;;;;;;;;;;;;;;16.51;39.93;95910.34;10405662;28;2068;-46
2022/12/24 23:56:30;;;;;;;;;;;;;;;16.51;39.96;95902.50;10404218;28;1927;-47
